createdAt,value
2018-02-13T15:56:32.562Z,32.37
2018-02-13T15:59:00.011Z,34.30
2018-02-13T16:01:27.414Z,31.93
2018-02-13T16:03:54.793Z,33.07
2018-02-13T16:06:22.256Z,32.53
2018-02-13T16:08:49.695Z,38.67
2018-02-13T16:11:17.409Z,35.77
2018-02-13T16:13:44.873Z,34.20
2018-02-13T16:16:12.271Z,32.97
2018-02-13T16:18:39.673Z,33.07
2018-02-13T16:21:07.085Z,31.33
2018-02-13T16:23:34.470Z,29.40
2018-02-13T16:26:02.042Z,26.37
2018-02-13T16:28:29.449Z,29.30
2018-02-13T16:30:56.902Z,32.97
2018-02-13T16:33:24.419Z,27.27
2018-02-13T16:35:51.813Z,26.80
2018-02-13T16:38:19.268Z,25.97
2018-02-13T16:40:46.742Z,35.67
2018-02-13T16:43:14.144Z,28.37
2018-02-13T16:45:41.550Z,28.23
2018-02-13T16:48:08.941Z,27.63
2018-02-13T16:50:36.346Z,26.13
2018-02-13T16:53:04.110Z,27.40
2018-02-13T16:55:31.503Z,26.73
2018-02-13T16:57:58.935Z,24.37
2018-02-13T17:00:26.325Z,25.63
2018-02-13T17:02:53.714Z,25.07
2018-02-13T17:05:21.162Z,25.23
2018-02-13T17:07:48.594Z,25.60
2018-02-13T17:10:15.981Z,29.57
2018-02-13T17:12:43.377Z,29.67
2018-02-13T17:15:10.793Z,30.23
2018-02-13T17:17:38.204Z,33.07
2018-02-13T17:20:05.642Z,35.50
2018-02-13T17:22:33.026Z,27.80
2018-02-13T17:25:00.417Z,27.53
2018-02-13T17:27:27.885Z,28.53
2018-02-13T17:29:55.343Z,29.33
2018-02-13T17:32:22.784Z,29.17
2018-02-13T17:34:50.206Z,29.80
2018-02-13T17:37:17.678Z,29.57
2018-02-13T17:39:45.070Z,29.90
2018-02-13T17:42:12.566Z,32.07
2018-02-13T17:44:39.970Z,31.27
2018-02-13T17:47:07.470Z,29.97
2018-02-13T17:49:34.893Z,31.30
2018-02-13T17:52:02.368Z,31.20
2018-02-13T17:54:29.793Z,31.20
2018-02-13T17:56:57.241Z,32.60
2018-02-13T17:59:24.626Z,31.97
2018-02-13T18:01:52.018Z,31.63
2018-02-13T18:04:19.471Z,30.13
2018-02-13T18:06:46.897Z,32.07
2018-02-13T18:09:14.305Z,31.33
2018-02-13T18:11:41.801Z,32.53
2018-02-13T18:14:09.209Z,32.27
2018-02-13T18:16:36.613Z,32.40
2018-02-13T18:19:04.002Z,34.43
2018-02-13T18:21:31.450Z,37.20
2018-02-13T18:23:58.850Z,41.47
2018-02-13T18:26:26.359Z,39.47
2018-02-13T18:28:53.775Z,40.50
2018-02-13T18:31:21.164Z,42.97
2018-02-13T18:33:48.633Z,39.37
2018-02-13T18:36:16.018Z,38.83
2018-02-13T18:38:43.407Z,40.47
2018-02-13T18:41:10.846Z,50.37
2018-02-13T18:43:38.276Z,44.97
2018-02-13T18:46:05.678Z,46.57
2018-02-13T18:48:33.120Z,50.07
2018-02-13T18:51:00.514Z,48.93
2018-02-13T18:53:27.938Z,68.13
2018-02-13T18:55:55.373Z,66.87
2018-02-13T18:58:22.887Z,76.33
2018-02-13T19:00:50.278Z,76.63
2018-02-13T19:03:17.718Z,80.93
2018-02-13T19:05:45.138Z,76.37
2018-02-13T19:08:12.574Z,76.30
2018-02-13T19:10:40.007Z,59.10
2018-02-13T19:13:07.422Z,59.23
2018-02-13T19:15:34.858Z,61.43
2018-02-13T19:18:02.304Z,58.43
2018-02-13T19:20:29.730Z,63.30
2018-02-13T19:22:57.184Z,61.33
2018-02-13T19:25:24.647Z,58.60
2018-02-13T19:27:52.117Z,56.50
2018-02-13T19:30:19.527Z,56.43
2018-02-13T19:32:46.975Z,58.83
2018-02-13T19:35:14.365Z,82.77
2018-02-13T19:37:41.799Z,79.97
2018-02-13T19:40:09.243Z,78.77
2018-02-13T19:42:36.828Z,84.63
2018-02-13T19:45:05.829Z,81.30
2018-02-13T19:47:33.266Z,83.27
2018-02-13T19:50:00.882Z,78.50
2018-02-13T19:52:28.286Z,70.73
2018-02-13T19:54:55.698Z,76.27
2018-02-13T19:57:23.133Z,77.07
2018-02-13T19:59:50.537Z,75.17
2018-02-13T20:02:17.942Z,69.57
2018-02-13T20:04:45.343Z,68.40
2018-02-13T20:07:12.778Z,67.83
2018-02-13T20:09:40.177Z,70.10
2018-02-13T20:12:07.574Z,67.47
2018-02-13T20:14:35.014Z,58.07
2018-02-13T20:17:02.438Z,79.50
2018-02-13T20:19:29.830Z,68.43
2018-02-13T20:21:57.225Z,96.10
2018-02-13T20:24:25.474Z,66.73
2018-02-13T20:26:52.894Z,71.73
2018-02-13T20:29:20.321Z,68.97
2018-02-13T20:31:47.744Z,67.27
2018-02-13T20:34:15.239Z,58.63
2018-02-13T20:36:42.742Z,75.20
2018-02-13T20:39:10.149Z,62.37
2018-02-13T20:41:38.586Z,61.87
2018-02-13T20:44:06.139Z,71.37
2018-02-13T20:46:33.555Z,61.93
2018-02-13T20:49:00.991Z,71.37
2018-02-13T20:51:28.399Z,67.73
2018-02-13T20:53:55.843Z,62.20
2018-02-13T20:56:23.246Z,77.87
2018-02-13T20:58:50.708Z,94.80
2018-02-13T21:01:18.107Z,82.53
2018-02-13T21:03:46.444Z,83.13
